sensor_id;sensor_type;location;lat;lon;timestamp;P1;durP1;ratioP1;P2;durP2;ratioP2
16189;SDS011;41754;51.498;7.540;2023-11-19T00:01:14;3.05;;;0.70;;
16189;SDS011;41754;51.498;7.540;2023-11-19T00:03:42;1.33;;;0.60;;
16189;SDS011;41754;51.498;7.540;2023-11-19T00:06:10;0.70;;;0.70;;
16189;SDS011;41754;51.498;7.540;2023-11-19T00:08:38;0.52;;;0.52;;
16189;SDS011;41754;51.498;7.540;2023-11-19T00:11:06;0.70;;;0.60;;
16189;SDS011;41754;51.498;7.540;2023-11-19T00:13:35;0.70;;;0.52;;
16189;SDS011;41754;51.498;7.540;2023-11-19T00:16:04;0.57;;;0.57;;
16189;SDS011;41754;51.498;7.540;2023-11-19T00:18:33;1.60;;;0.50;;
16189;SDS011;41754;51.498;7.540;2023-11-19T00:21:02;0.70;;;0.65;;
16189;SDS011;41754;51.498;7.540;2023-11-19T00:23:30;0.50;;;0.50;;
16189;SDS011;41754;51.498;7.540;2023-11-19T00:25:58;0.98;;;0.55;;
16189;SDS011;41754;51.498;7.540;2023-11-19T00:28:26;0.82;;;0.43;;
16189;SDS011;41754;51.498;7.540;2023-11-19T00:30:56;1.00;;;0.70;;
16189;SDS011;41754;51.498;7.540;2023-11-19T00:33:25;1.38;;;0.63;;
16189;SDS011;41754;51.498;7.540;2023-11-19T00:35:53;0.93;;;0.60;;
16189;SDS011;41754;51.498;7.540;2023-11-19T00:38:22;0.70;;;0.60;;
16189;SDS011;41754;51.498;7.540;2023-11-19T00:40:50;1.27;;;0.50;;
16189;SDS011;41754;51.498;7.540;2023-11-19T00:43:18;0.82;;;0.63;;
16189;SDS011;41754;51.498;7.540;2023-11-19T00:45:48;4.13;;;0.70;;
16189;SDS011;41754;51.498;7.540;2023-11-19T00:48:18;0.70;;;0.70;;
16189;SDS011;41754;51.498;7.540;2023-11-19T00:50:46;1.25;;;0.80;;
16189;SDS011;41754;51.498;7.540;2023-11-19T00:53:15;0.82;;;0.80;;
16189;SDS011;41754;51.498;7.540;2023-11-19T00:55:43;0.77;;;0.77;;
16189;SDS011;41754;51.498;7.540;2023-11-19T00:58:13;1.00;;;0.90;;
16189;SDS011;41754;51.498;7.540;2023-11-19T01:00:40;1.15;;;1.00;;
16189;SDS011;41754;51.498;7.540;2023-11-19T01:03:09;1.70;;;1.10;;
16189;SDS011;41754;51.498;7.540;2023-11-19T01:05:39;0.93;;;0.90;;
16189;SDS011;41754;51.498;7.540;2023-11-19T01:08:07;1.17;;;1.13;;
16189;SDS011;41754;51.498;7.540;2023-11-19T01:10:36;1.15;;;1.10;;
16189;SDS011;41754;51.498;7.540;2023-11-19T01:13:04;1.35;;;1.25;;
16189;SDS011;41754;51.498;7.540;2023-11-19T01:15:33;3.58;;;1.50;;
16189;SDS011;41754;51.498;7.540;2023-11-19T01:18:01;1.17;;;1.10;;
16189;SDS011;41754;51.498;7.540;2023-11-19T01:20:31;2.45;;;1.25;;
16189;SDS011;41754;51.498;7.540;2023-11-19T01:23:02;0.95;;;0.95;;
16189;SDS011;41754;51.498;7.540;2023-11-19T01:25:30;1.55;;;1.20;;
16189;SDS011;41754;51.498;7.540;2023-11-19T01:27:58;1.25;;;1.10;;
16189;SDS011;41754;51.498;7.540;2023-11-19T01:30:26;1.50;;;1.35;;
16189;SDS011;41754;51.498;7.540;2023-11-19T01:32:54;1.83;;;1.50;;
16189;SDS011;41754;51.498;7.540;2023-11-19T01:35:22;1.67;;;1.30;;
16189;SDS011;41754;51.498;7.540;2023-11-19T01:37:53;2.95;;;1.50;;
16189;SDS011;41754;51.498;7.540;2023-11-19T01:40:22;2.00;;;1.50;;
16189;SDS011;41754;51.498;7.540;2023-11-19T01:42:50;2.75;;;1.38;;
16189;SDS011;41754;51.498;7.540;2023-11-19T01:45:22;1.85;;;1.27;;
16189;SDS011;41754;51.498;7.540;2023-11-19T01:47:55;2.97;;;1.42;;
16189;SDS011;41754;51.498;7.540;2023-11-19T01:50:24;1.45;;;1.35;;
16189;SDS011;41754;51.498;7.540;2023-11-19T01:52:52;2.13;;;1.40;;
16189;SDS011;41754;51.498;7.540;2023-11-19T01:55:22;2.05;;;1.20;;
16189;SDS011;41754;51.498;7.540;2023-11-19T01:57:51;1.58;;;1.10;;
16189;SDS011;41754;51.498;7.540;2023-11-19T02:00:22;1.45;;;1.20;;
16189;SDS011;41754;51.498;7.540;2023-11-19T02:02:50;2.72;;;1.25;;
16189;SDS011;41754;51.498;7.540;2023-11-19T02:05:21;1.38;;;1.17;;
16189;SDS011;41754;51.498;7.540;2023-11-19T02:07:49;3.17;;;1.13;;
16189;SDS011;41754;51.498;7.540;2023-11-19T02:10:17;1.00;;;1.00;;
16189;SDS011;41754;51.498;7.540;2023-11-19T02:12:47;1.70;;;1.00;;
16189;SDS011;41754;51.498;7.540;2023-11-19T02:15:15;1.02;;;1.00;;
16189;SDS011;41754;51.498;7.540;2023-11-19T02:17:45;2.17;;;1.10;;
16189;SDS011;41754;51.498;7.540;2023-11-19T02:20:13;3.22;;;1.20;;
16189;SDS011;41754;51.498;7.540;2023-11-19T02:22:41;1.85;;;0.82;;
16189;SDS011;41754;51.498;7.540;2023-11-19T02:25:12;1.08;;;0.90;;
16189;SDS011;41754;51.498;7.540;2023-11-19T02:27:51;1.27;;;1.00;;
16189;SDS011;41754;51.498;7.540;2023-11-19T02:30:23;1.23;;;0.90;;
16189;SDS011;41754;51.498;7.540;2023-11-19T02:32:53;1.33;;;0.98;;
16189;SDS011;41754;51.498;7.540;2023-11-19T02:35:23;4.55;;;1.10;;
16189;SDS011;41754;51.498;7.540;2023-11-19T02:37:52;4.25;;;1.45;;
16189;SDS011;41754;51.498;7.540;2023-11-19T02:40:20;1.50;;;1.30;;
16189;SDS011;41754;51.498;7.540;2023-11-19T02:42:52;1.90;;;1.40;;
16189;SDS011;41754;51.498;7.540;2023-11-19T02:45:20;5.72;;;2.08;;
16189;SDS011;41754;51.498;7.540;2023-11-19T02:47:49;3.88;;;1.90;;
16189;SDS011;41754;51.498;7.540;2023-11-19T02:50:17;4.55;;;2.00;;
16189;SDS011;41754;51.498;7.540;2023-11-19T02:52:52;2.95;;;1.40;;
16189;SDS011;41754;51.498;7.540;2023-11-19T02:55:23;4.60;;;2.40;;
16189;SDS011;41754;51.498;7.540;2023-11-19T02:57:55;4.72;;;1.80;;
16189;SDS011;41754;51.498;7.540;2023-11-19T03:00:26;3.42;;;1.42;;
16189;SDS011;41754;51.498;7.540;2023-11-19T03:03:03;5.30;;;2.00;;
16189;SDS011;41754;51.498;7.540;2023-11-19T03:05:44;4.75;;;1.73;;
16189;SDS011;41754;51.498;7.540;2023-11-19T03:08:13;7.03;;;2.08;;
16189;SDS011;41754;51.498;7.540;2023-11-19T03:10:45;8.52;;;1.85;;
16189;SDS011;41754;51.498;7.540;2023-11-19T03:13:14;5.53;;;2.08;;
16189;SDS011;41754;51.498;7.540;2023-11-19T03:15:43;6.35;;;1.65;;
16189;SDS011;41754;51.498;7.540;2023-11-19T03:18:12;4.85;;;1.73;;
16189;SDS011;41754;51.498;7.540;2023-11-19T03:20:40;8.52;;;1.65;;
16189;SDS011;41754;51.498;7.540;2023-11-19T03:23:07;6.47;;;2.15;;
16189;SDS011;41754;51.498;7.540;2023-11-19T03:25:36;8.32;;;1.95;;
16189;SDS011;41754;51.498;7.540;2023-11-19T03:28:04;8.35;;;2.05;;
16189;SDS011;41754;51.498;7.540;2023-11-19T03:30:34;8.10;;;2.00;;
16189;SDS011;41754;51.498;7.540;2023-11-19T03:33:02;10.13;;;2.78;;
16189;SDS011;41754;51.498;7.540;2023-11-19T03:35:30;8.80;;;2.38;;
16189;SDS011;41754;51.498;7.540;2023-11-19T03:37:59;9.52;;;2.35;;
16189;SDS011;41754;51.498;7.540;2023-11-19T03:40:27;6.03;;;2.33;;
16189;SDS011;41754;51.498;7.540;2023-11-19T03:42:55;7.82;;;2.17;;
16189;SDS011;41754;51.498;7.540;2023-11-19T03:45:24;6.70;;;2.53;;
16189;SDS011;41754;51.498;7.540;2023-11-19T03:47:53;11.40;;;2.40;;
16189;SDS011;41754;51.498;7.540;2023-11-19T03:50:21;8.70;;;2.33;;
16189;SDS011;41754;51.498;7.540;2023-11-19T03:52:50;8.57;;;2.47;;
16189;SDS011;41754;51.498;7.540;2023-11-19T03:55:18;10.05;;;2.88;;
16189;SDS011;41754;51.498;7.540;2023-11-19T03:57:46;8.80;;;3.08;;
16189;SDS011;41754;51.498;7.540;2023-11-19T04:00:15;9.98;;;2.33;;
16189;SDS011;41754;51.498;7.540;2023-11-19T04:02:43;9.25;;;2.45;;
16189;SDS011;41754;51.498;7.540;2023-11-19T04:05:14;8.48;;;2.92;;
16189;SDS011;41754;51.498;7.540;2023-11-19T04:07:45;11.40;;;3.38;;
16189;SDS011;41754;51.498;7.540;2023-11-19T04:10:13;11.35;;;3.00;;
16189;SDS011;41754;51.498;7.540;2023-11-19T04:12:42;10.40;;;3.58;;
16189;SDS011;41754;51.498;7.540;2023-11-19T04:15:10;11.07;;;3.42;;
16189;SDS011;41754;51.498;7.540;2023-11-19T04:17:38;14.43;;;3.63;;
16189;SDS011;41754;51.498;7.540;2023-11-19T04:20:07;10.55;;;2.97;;
16189;SDS011;41754;51.498;7.540;2023-11-19T04:22:40;15.55;;;4.07;;
16189;SDS011;41754;51.498;7.540;2023-11-19T04:25:08;8.82;;;2.95;;
16189;SDS011;41754;51.498;7.540;2023-11-19T04:27:37;10.23;;;3.10;;
16189;SDS011;41754;51.498;7.540;2023-11-19T04:30:07;12.23;;;3.20;;
16189;SDS011;41754;51.498;7.540;2023-11-19T04:32:37;15.05;;;3.72;;
16189;SDS011;41754;51.498;7.540;2023-11-19T04:35:06;12.07;;;3.20;;
16189;SDS011;41754;51.498;7.540;2023-11-19T04:37:35;12.60;;;3.65;;
16189;SDS011;41754;51.498;7.540;2023-11-19T04:40:05;13.85;;;3.50;;
16189;SDS011;41754;51.498;7.540;2023-11-19T04:42:34;11.07;;;3.78;;
16189;SDS011;41754;51.498;7.540;2023-11-19T04:45:01;16.60;;;3.50;;
16189;SDS011;41754;51.498;7.540;2023-11-19T04:47:32;15.38;;;3.63;;
16189;SDS011;41754;51.498;7.540;2023-11-19T04:50:00;11.77;;;3.67;;
16189;SDS011;41754;51.498;7.540;2023-11-19T04:52:28;12.60;;;3.60;;
16189;SDS011;41754;51.498;7.540;2023-11-19T04:54:56;11.77;;;3.05;;
16189;SDS011;41754;51.498;7.540;2023-11-19T04:57:25;12.77;;;3.45;;
16189;SDS011;41754;51.498;7.540;2023-11-19T04:59:53;11.00;;;3.30;;
16189;SDS011;41754;51.498;7.540;2023-11-19T05:02:21;17.27;;;4.13;;
16189;SDS011;41754;51.498;7.540;2023-11-19T05:04:49;16.85;;;3.92;;
16189;SDS011;41754;51.498;7.540;2023-11-19T05:07:17;13.55;;;3.78;;
16189;SDS011;41754;51.498;7.540;2023-11-19T05:09:45;16.85;;;3.53;;
16189;SDS011;41754;51.498;7.540;2023-11-19T05:12:13;17.67;;;4.53;;
16189;SDS011;41754;51.498;7.540;2023-11-19T05:14:42;18.00;;;4.57;;
16189;SDS011;41754;51.498;7.540;2023-11-19T05:17:16;17.60;;;3.75;;
16189;SDS011;41754;51.498;7.540;2023-11-19T05:19:45;17.48;;;3.95;;
16189;SDS011;41754;51.498;7.540;2023-11-19T05:22:15;19.25;;;4.40;;
16189;SDS011;41754;51.498;7.540;2023-11-19T05:24:43;15.57;;;3.80;;
16189;SDS011;41754;51.498;7.540;2023-11-19T05:27:10;16.38;;;4.47;;
16189;SDS011;41754;51.498;7.540;2023-11-19T05:29:39;16.35;;;4.07;;
16189;SDS011;41754;51.498;7.540;2023-11-19T05:32:09;13.82;;;3.85;;
16189;SDS011;41754;51.498;7.540;2023-11-19T05:34:37;18.42;;;3.60;;
16189;SDS011;41754;51.498;7.540;2023-11-19T05:37:18;20.05;;;3.92;;
16189;SDS011;41754;51.498;7.540;2023-11-19T05:39:46;17.45;;;4.40;;
16189;SDS011;41754;51.498;7.540;2023-11-19T05:42:13;23.77;;;5.20;;
16189;SDS011;41754;51.498;7.540;2023-11-19T05:44:41;19.27;;;4.30;;
16189;SDS011;41754;51.498;7.540;2023-11-19T05:47:10;19.38;;;4.85;;
16189;SDS011;41754;51.498;7.540;2023-11-19T05:49:38;20.50;;;4.43;;
16189;SDS011;41754;51.498;7.540;2023-11-19T05:52:06;18.38;;;4.28;;
16189;SDS011;41754;51.498;7.540;2023-11-19T05:54:36;17.63;;;4.70;;
16189;SDS011;41754;51.498;7.540;2023-11-19T05:57:04;17.48;;;3.83;;
16189;SDS011;41754;51.498;7.540;2023-11-19T05:59:32;24.75;;;5.22;;
16189;SDS011;41754;51.498;7.540;2023-11-19T06:02:00;19.08;;;4.47;;
16189;SDS011;41754;51.498;7.540;2023-11-19T06:04:30;21.45;;;4.60;;
16189;SDS011;41754;51.498;7.540;2023-11-19T06:06:57;22.92;;;5.72;;
16189;SDS011;41754;51.498;7.540;2023-11-19T06:09:25;17.13;;;4.53;;
16189;SDS011;41754;51.498;7.540;2023-11-19T06:11:53;23.58;;;5.05;;
16189;SDS011;41754;51.498;7.540;2023-11-19T06:14:23;16.50;;;4.32;;
16189;SDS011;41754;51.498;7.540;2023-11-19T06:16:51;19.85;;;4.32;;
16189;SDS011;41754;51.498;7.540;2023-11-19T06:19:19;17.55;;;5.32;;
16189;SDS011;41754;51.498;7.540;2023-11-19T06:21:48;16.67;;;3.95;;
16189;SDS011;41754;51.498;7.540;2023-11-19T06:24:16;16.60;;;4.35;;
16189;SDS011;41754;51.498;7.540;2023-11-19T06:26:44;13.75;;;4.15;;
16189;SDS011;41754;51.498;7.540;2023-11-19T06:29:12;19.40;;;3.95;;
16189;SDS011;41754;51.498;7.540;2023-11-19T06:31:44;17.83;;;4.20;;
16189;SDS011;41754;51.498;7.540;2023-11-19T06:34:15;19.42;;;4.85;;
16189;SDS011;41754;51.498;7.540;2023-11-19T06:36:42;17.60;;;4.53;;
16189;SDS011;41754;51.498;7.540;2023-11-19T06:39:12;17.77;;;4.32;;
16189;SDS011;41754;51.498;7.540;2023-11-19T06:41:44;19.75;;;4.50;;
16189;SDS011;41754;51.498;7.540;2023-11-19T06:44:12;16.40;;;4.53;;
16189;SDS011;41754;51.498;7.540;2023-11-19T06:46:40;15.75;;;4.65;;
16189;SDS011;41754;51.498;7.540;2023-11-19T06:49:08;17.20;;;4.10;;
16189;SDS011;41754;51.498;7.540;2023-11-19T06:51:41;17.20;;;4.80;;
16189;SDS011;41754;51.498;7.540;2023-11-19T06:54:09;16.83;;;4.05;;
16189;SDS011;41754;51.498;7.540;2023-11-19T06:56:38;22.35;;;4.15;;
16189;SDS011;41754;51.498;7.540;2023-11-19T06:59:06;19.52;;;4.30;;
16189;SDS011;41754;51.498;7.540;2023-11-19T07:01:34;26.98;;;4.32;;
16189;SDS011;41754;51.498;7.540;2023-11-19T07:04:03;17.00;;;4.25;;
16189;SDS011;41754;51.498;7.540;2023-11-19T07:06:35;16.73;;;4.00;;
16189;SDS011;41754;51.498;7.540;2023-11-19T07:09:04;16.08;;;4.47;;
16189;SDS011;41754;51.498;7.540;2023-11-19T07:11:36;15.02;;;4.47;;
16189;SDS011;41754;51.498;7.540;2023-11-19T07:14:07;17.35;;;4.53;;
16189;SDS011;41754;51.498;7.540;2023-11-19T07:16:35;16.73;;;4.72;;
16189;SDS011;41754;51.498;7.540;2023-11-19T07:19:04;15.00;;;4.47;;
16189;SDS011;41754;51.498;7.540;2023-11-19T07:21:33;17.58;;;4.53;;
16189;SDS011;41754;51.498;7.540;2023-11-19T07:24:01;16.30;;;5.20;;
16189;SDS011;41754;51.498;7.540;2023-11-19T07:26:30;21.83;;;4.68;;
16189;SDS011;41754;51.498;7.540;2023-11-19T07:28:57;17.33;;;4.47;;
16189;SDS011;41754;51.498;7.540;2023-11-19T07:31:29;16.27;;;3.63;;
16189;SDS011;41754;51.498;7.540;2023-11-19T07:33:57;20.92;;;5.00;;
16189;SDS011;41754;51.498;7.540;2023-11-19T07:36:25;18.45;;;4.13;;
16189;SDS011;41754;51.498;7.540;2023-11-19T07:38:53;18.90;;;4.53;;
16189;SDS011;41754;51.498;7.540;2023-11-19T07:41:24;16.92;;;4.30;;
16189;SDS011;41754;51.498;7.540;2023-11-19T07:43:52;18.65;;;4.78;;
16189;SDS011;41754;51.498;7.540;2023-11-19T07:46:23;16.60;;;4.63;;
16189;SDS011;41754;51.498;7.540;2023-11-19T07:48:53;20.08;;;4.70;;
16189;SDS011;41754;51.498;7.540;2023-11-19T07:51:21;18.02;;;4.72;;
16189;SDS011;41754;51.498;7.540;2023-11-19T07:53:49;19.33;;;4.78;;
16189;SDS011;41754;51.498;7.540;2023-11-19T07:56:17;17.02;;;4.30;;
16189;SDS011;41754;51.498;7.540;2023-11-19T07:58:46;14.05;;;4.15;;
16189;SDS011;41754;51.498;7.540;2023-11-19T08:01:15;18.20;;;4.80;;
16189;SDS011;41754;51.498;7.540;2023-11-19T08:03:43;18.17;;;4.38;;
16189;SDS011;41754;51.498;7.540;2023-11-19T08:06:18;16.77;;;4.57;;
16189;SDS011;41754;51.498;7.540;2023-11-19T08:08:46;16.55;;;4.40;;
16189;SDS011;41754;51.498;7.540;2023-11-19T08:11:15;16.88;;;4.35;;
16189;SDS011;41754;51.498;7.540;2023-11-19T08:13:45;23.73;;;4.95;;
16189;SDS011;41754;51.498;7.540;2023-11-19T08:16:13;18.60;;;4.57;;
16189;SDS011;41754;51.498;7.540;2023-11-19T08:18:41;19.13;;;4.63;;
16189;SDS011;41754;51.498;7.540;2023-11-19T08:21:10;16.17;;;4.03;;
16189;SDS011;41754;51.498;7.540;2023-11-19T08:23:40;15.15;;;4.18;;
16189;SDS011;41754;51.498;7.540;2023-11-19T08:26:08;21.52;;;4.82;;
16189;SDS011;41754;51.498;7.540;2023-11-19T08:28:37;24.48;;;5.38;;
16189;SDS011;41754;51.498;7.540;2023-11-19T08:31:05;19.17;;;4.85;;
16189;SDS011;41754;51.498;7.540;2023-11-19T08:33:33;20.25;;;4.47;;
16189;SDS011;41754;51.498;7.540;2023-11-19T08:36:01;17.58;;;4.47;;
16189;SDS011;41754;51.498;7.540;2023-11-19T08:38:30;14.35;;;3.97;;
16189;SDS011;41754;51.498;7.540;2023-11-19T08:41:00;17.10;;;4.25;;
16189;SDS011;41754;51.498;7.540;2023-11-19T08:43:32;14.95;;;4.20;;
16189;SDS011;41754;51.498;7.540;2023-11-19T08:45:59;22.80;;;4.10;;
16189;SDS011;41754;51.498;7.540;2023-11-19T08:48:27;21.17;;;5.40;;
16189;SDS011;41754;51.498;7.540;2023-11-19T08:50:55;15.68;;;4.00;;
16189;SDS011;41754;51.498;7.540;2023-11-19T08:53:23;16.90;;;4.47;;
16189;SDS011;41754;51.498;7.540;2023-11-19T08:55:51;29.05;;;4.97;;
16189;SDS011;41754;51.498;7.540;2023-11-19T08:58:20;20.67;;;4.63;;
16189;SDS011;41754;51.498;7.540;2023-11-19T09:00:48;17.63;;;4.72;;
16189;SDS011;41754;51.498;7.540;2023-11-19T09:03:16;21.73;;;5.00;;
16189;SDS011;41754;51.498;7.540;2023-11-19T09:05:44;20.13;;;5.25;;
16189;SDS011;41754;51.498;7.540;2023-11-19T09:08:12;17.85;;;5.10;;
16189;SDS011;41754;51.498;7.540;2023-11-19T09:10:40;18.42;;;5.20;;
16189;SDS011;41754;51.498;7.540;2023-11-19T09:13:07;22.20;;;4.75;;
16189;SDS011;41754;51.498;7.540;2023-11-19T09:15:37;21.33;;;5.20;;
16189;SDS011;41754;51.498;7.540;2023-11-19T09:18:04;23.45;;;5.68;;
16189;SDS011;41754;51.498;7.540;2023-11-19T09:20:32;25.13;;;5.38;;
16189;SDS011;41754;51.498;7.540;2023-11-19T09:23:05;19.85;;;5.07;;
16189;SDS011;41754;51.498;7.540;2023-11-19T09:25:35;16.92;;;5.15;;
16189;SDS011;41754;51.498;7.540;2023-11-19T09:28:06;17.40;;;5.00;;
16189;SDS011;41754;51.498;7.540;2023-11-19T09:30:36;21.15;;;4.72;;
16189;SDS011;41754;51.498;7.540;2023-11-19T09:33:04;20.00;;;5.15;;
16189;SDS011;41754;51.498;7.540;2023-11-19T09:35:32;21.55;;;5.90;;
16189;SDS011;41754;51.498;7.540;2023-11-19T09:38:00;22.10;;;5.50;;
16189;SDS011;41754;51.498;7.540;2023-11-19T09:40:32;17.63;;;4.57;;
16189;SDS011;41754;51.498;7.540;2023-11-19T09:42:59;20.17;;;4.88;;
16189;SDS011;41754;51.498;7.540;2023-11-19T09:45:28;19.60;;;4.95;;
16189;SDS011;41754;51.498;7.540;2023-11-19T09:47:59;16.15;;;4.53;;
16189;SDS011;41754;51.498;7.540;2023-11-19T09:50:29;20.52;;;5.40;;
16189;SDS011;41754;51.498;7.540;2023-11-19T09:52:58;18.30;;;4.43;;
16189;SDS011;41754;51.498;7.540;2023-11-19T09:55:26;23.05;;;5.75;;
16189;SDS011;41754;51.498;7.540;2023-11-19T09:57:54;17.17;;;4.55;;
16189;SDS011;41754;51.498;7.540;2023-11-19T10:00:23;19.63;;;5.63;;
16189;SDS011;41754;51.498;7.540;2023-11-19T10:02:51;18.23;;;4.45;;
16189;SDS011;41754;51.498;7.540;2023-11-19T10:05:20;24.23;;;5.25;;
16189;SDS011;41754;51.498;7.540;2023-11-19T10:07:51;20.98;;;4.82;;
16189;SDS011;41754;51.498;7.540;2023-11-19T10:10:19;15.80;;;4.40;;
16189;SDS011;41754;51.498;7.540;2023-11-19T10:12:47;20.67;;;4.43;;
16189;SDS011;41754;51.498;7.540;2023-11-19T10:15:22;19.88;;;4.63;;
16189;SDS011;41754;51.498;7.540;2023-11-19T10:17:55;22.27;;;5.68;;
16189;SDS011;41754;51.498;7.540;2023-11-19T10:20:25;16.08;;;5.43;;
16189;SDS011;41754;51.498;7.540;2023-11-19T10:22:53;21.05;;;4.60;;
16189;SDS011;41754;51.498;7.540;2023-11-19T10:25:21;17.20;;;4.45;;
16189;SDS011;41754;51.498;7.540;2023-11-19T10:27:50;17.60;;;4.93;;
16189;SDS011;41754;51.498;7.540;2023-11-19T10:30:20;22.63;;;4.90;;
16189;SDS011;41754;51.498;7.540;2023-11-19T10:33:02;18.60;;;4.75;;
16189;SDS011;41754;51.498;7.540;2023-11-19T10:35:35;19.73;;;5.13;;
16189;SDS011;41754;51.498;7.540;2023-11-19T10:38:13;22.08;;;4.45;;
16189;SDS011;41754;51.498;7.540;2023-11-19T10:40:42;17.40;;;4.90;;
16189;SDS011;41754;51.498;7.540;2023-11-19T10:43:10;22.23;;;5.00;;
16189;SDS011;41754;51.498;7.540;2023-11-19T10:45:38;20.83;;;4.53;;
16189;SDS011;41754;51.498;7.540;2023-11-19T10:48:07;21.85;;;4.95;;
16189;SDS011;41754;51.498;7.540;2023-11-19T10:50:38;22.17;;;5.28;;
16189;SDS011;41754;51.498;7.540;2023-11-19T10:53:08;23.27;;;5.40;;
16189;SDS011;41754;51.498;7.540;2023-11-19T10:55:37;18.92;;;5.32;;
16189;SDS011;41754;51.498;7.540;2023-11-19T10:58:06;15.77;;;4.53;;
16189;SDS011;41754;51.498;7.540;2023-11-19T11:00:37;15.95;;;4.78;;
16189;SDS011;41754;51.498;7.540;2023-11-19T11:03:11;17.45;;;5.07;;
16189;SDS011;41754;51.498;7.540;2023-11-19T11:05:45;27.73;;;5.50;;
16189;SDS011;41754;51.498;7.540;2023-11-19T11:08:15;25.00;;;5.55;;
16189;SDS011;41754;51.498;7.540;2023-11-19T11:10:44;19.08;;;5.47;;
16189;SDS011;41754;51.498;7.540;2023-11-19T11:13:16;18.67;;;5.32;;
16189;SDS011;41754;51.498;7.540;2023-11-19T11:15:45;22.58;;;5.50;;
16189;SDS011;41754;51.498;7.540;2023-11-19T11:18:14;24.98;;;5.63;;
16189;SDS011;41754;51.498;7.540;2023-11-19T11:20:44;18.23;;;4.03;;
16189;SDS011;41754;51.498;7.540;2023-11-19T11:23:29;20.13;;;4.25;;
16189;SDS011;41754;51.498;7.540;2023-11-19T11:26:25;20.70;;;4.95;;
16189;SDS011;41754;51.498;7.540;2023-11-19T11:29:02;18.70;;;4.85;;
16189;SDS011;41754;51.498;7.540;2023-11-19T11:31:36;20.92;;;5.32;;
16189;SDS011;41754;51.498;7.540;2023-11-19T11:37:21;19.05;;;5.25;;
16189;SDS011;41754;51.498;7.540;2023-11-19T11:39:56;15.93;;;4.43;;
16189;SDS011;41754;51.498;7.540;2023-11-19T11:42:35;18.08;;;4.55;;
16189;SDS011;41754;51.498;7.540;2023-11-19T11:45:05;19.33;;;4.97;;
16189;SDS011;41754;51.498;7.540;2023-11-19T11:50:50;14.43;;;4.20;;
16189;SDS011;41754;51.498;7.540;2023-11-19T11:53:22;16.08;;;4.78;;
16189;SDS011;41754;51.498;7.540;2023-11-19T11:55:58;13.05;;;4.18;;
16189;SDS011;41754;51.498;7.540;2023-11-19T11:58:31;12.60;;;4.35;;
16189;SDS011;41754;51.498;7.540;2023-11-19T12:00:59;18.63;;;4.93;;
16189;SDS011;41754;51.498;7.540;2023-11-19T12:03:29;17.92;;;3.78;;
16189;SDS011;41754;51.498;7.540;2023-11-19T12:05:59;14.52;;;3.95;;
16189;SDS011;41754;51.498;7.540;2023-11-19T12:08:29;19.40;;;4.35;;
16189;SDS011;41754;51.498;7.540;2023-11-19T12:10:58;17.52;;;4.20;;
16189;SDS011;41754;51.498;7.540;2023-11-19T12:13:42;15.50;;;4.55;;
16189;SDS011;41754;51.498;7.540;2023-11-19T12:16:14;19.20;;;4.35;;
16189;SDS011;41754;51.498;7.540;2023-11-19T12:18:42;13.70;;;3.83;;
16189;SDS011;41754;51.498;7.540;2023-11-19T12:21:11;11.93;;;3.70;;
16189;SDS011;41754;51.498;7.540;2023-11-19T12:23:46;16.85;;;4.63;;
16189;SDS011;41754;51.498;7.540;2023-11-19T12:26:30;17.15;;;4.32;;
16189;SDS011;41754;51.498;7.540;2023-11-19T12:29:00;18.88;;;5.30;;
16189;SDS011;41754;51.498;7.540;2023-11-19T12:31:34;16.55;;;5.15;;
16189;SDS011;41754;51.498;7.540;2023-11-19T12:34:08;14.73;;;3.65;;
16189;SDS011;41754;51.498;7.540;2023-11-19T12:36:39;15.00;;;4.57;;
16189;SDS011;41754;51.498;7.540;2023-11-19T12:39:12;15.02;;;3.92;;
16189;SDS011;41754;51.498;7.540;2023-11-19T12:41:50;21.70;;;4.80;;
16189;SDS011;41754;51.498;7.540;2023-11-19T12:44:21;13.38;;;3.72;;
16189;SDS011;41754;51.498;7.540;2023-11-19T12:46:59;12.98;;;3.50;;
16189;SDS011;41754;51.498;7.540;2023-11-19T12:49:28;19.15;;;4.50;;
16189;SDS011;41754;51.498;7.540;2023-11-19T12:51:56;16.10;;;3.72;;
16189;SDS011;41754;51.498;7.540;2023-11-19T12:54:35;17.35;;;3.90;;
16189;SDS011;41754;51.498;7.540;2023-11-19T12:57:04;18.50;;;4.30;;
16189;SDS011;41754;51.498;7.540;2023-11-19T12:59:32;14.02;;;3.90;;
16189;SDS011;41754;51.498;7.540;2023-11-19T13:02:00;14.65;;;3.85;;
16189;SDS011;41754;51.498;7.540;2023-11-19T13:04:31;14.35;;;3.65;;
16189;SDS011;41754;51.498;7.540;2023-11-19T13:06:59;17.13;;;4.38;;
16189;SDS011;41754;51.498;7.540;2023-11-19T13:09:31;16.20;;;4.22;;
16189;SDS011;41754;51.498;7.540;2023-11-19T13:12:11;14.23;;;3.75;;
16189;SDS011;41754;51.498;7.540;2023-11-19T13:14:40;12.85;;;4.07;;
16189;SDS011;41754;51.498;7.540;2023-11-19T13:17:12;12.30;;;3.75;;
16189;SDS011;41754;51.498;7.540;2023-11-19T13:19:41;20.55;;;4.45;;
16189;SDS011;41754;51.498;7.540;2023-11-19T13:22:09;13.52;;;3.92;;
16189;SDS011;41754;51.498;7.540;2023-11-19T13:24:37;14.60;;;3.97;;
16189;SDS011;41754;51.498;7.540;2023-11-19T13:27:08;15.40;;;4.28;;
16189;SDS011;41754;51.498;7.540;2023-11-19T13:29:36;20.10;;;4.85;;
16189;SDS011;41754;51.498;7.540;2023-11-19T13:32:04;21.38;;;4.63;;
16189;SDS011;41754;51.498;7.540;2023-11-19T13:34:32;16.30;;;4.07;;
16189;SDS011;41754;51.498;7.540;2023-11-19T13:37:00;18.45;;;4.50;;
16189;SDS011;41754;51.498;7.540;2023-11-19T13:39:28;18.02;;;5.25;;
16189;SDS011;41754;51.498;7.540;2023-11-19T13:41:56;20.50;;;4.35;;
16189;SDS011;41754;51.498;7.540;2023-11-19T13:44:28;17.23;;;3.75;;
16189;SDS011;41754;51.498;7.540;2023-11-19T13:46:56;13.82;;;3.80;;
16189;SDS011;41754;51.498;7.540;2023-11-19T13:49:24;11.02;;;3.58;;
16189;SDS011;41754;51.498;7.540;2023-11-19T13:51:52;12.90;;;3.90;;
16189;SDS011;41754;51.498;7.540;2023-11-19T13:54:20;13.77;;;3.40;;
16189;SDS011;41754;51.498;7.540;2023-11-19T13:56:49;15.82;;;3.40;;
16189;SDS011;41754;51.498;7.540;2023-11-19T13:59:20;13.25;;;3.65;;
16189;SDS011;41754;51.498;7.540;2023-11-19T14:01:49;12.75;;;3.08;;
16189;SDS011;41754;51.498;7.540;2023-11-19T14:04:17;12.60;;;3.33;;
16189;SDS011;41754;51.498;7.540;2023-11-19T14:06:45;13.02;;;3.40;;
16189;SDS011;41754;51.498;7.540;2023-11-19T14:09:13;12.68;;;3.22;;
16189;SDS011;41754;51.498;7.540;2023-11-19T14:11:41;10.38;;;3.15;;
16189;SDS011;41754;51.498;7.540;2023-11-19T14:14:09;10.43;;;3.53;;
16189;SDS011;41754;51.498;7.540;2023-11-19T14:16:37;9.88;;;3.53;;
16189;SDS011;41754;51.498;7.540;2023-11-19T14:19:07;13.05;;;3.50;;
16189;SDS011;41754;51.498;7.540;2023-11-19T14:21:34;15.23;;;4.05;;
16189;SDS011;41754;51.498;7.540;2023-11-19T14:24:03;16.17;;;3.85;;
16189;SDS011;41754;51.498;7.540;2023-11-19T14:26:31;13.85;;;4.15;;
16189;SDS011;41754;51.498;7.540;2023-11-19T14:28:59;11.73;;;2.95;;
16189;SDS011;41754;51.498;7.540;2023-11-19T14:31:27;10.70;;;3.70;;
16189;SDS011;41754;51.498;7.540;2023-11-19T14:33:55;14.50;;;3.40;;
16189;SDS011;41754;51.498;7.540;2023-11-19T14:36:24;13.27;;;3.70;;
16189;SDS011;41754;51.498;7.540;2023-11-19T14:38:54;9.15;;;3.15;;
16189;SDS011;41754;51.498;7.540;2023-11-19T14:41:21;12.50;;;4.13;;
16189;SDS011;41754;51.498;7.540;2023-11-19T14:43:49;10.57;;;3.35;;
16189;SDS011;41754;51.498;7.540;2023-11-19T14:46:17;12.63;;;3.58;;
16189;SDS011;41754;51.498;7.540;2023-11-19T14:48:45;13.20;;;3.40;;
16189;SDS011;41754;51.498;7.540;2023-11-19T14:51:13;19.25;;;4.65;;
16189;SDS011;41754;51.498;7.540;2023-11-19T14:53:42;10.55;;;3.40;;
16189;SDS011;41754;51.498;7.540;2023-11-19T14:56:11;15.45;;;4.32;;
16189;SDS011;41754;51.498;7.540;2023-11-19T14:58:40;13.77;;;3.95;;